Peaks Island, ME

10:21 PM EDT on June 01, 2015 (GMT -0400)
KMELONGI2 | | Change Station
CLOSE
Current Station
Personal Weather Station
Location: Long Island, ME
Elevation: 40 ft
Nearby Weather Stations

Elev 40 ft 43.68 °N, 70.16 °W | Updated 14 seconds ago

Overcast
Overcast
46.3 °F
Feels Like 46 °F
N
3.0
Wind Variable Wind from ENE
Gusts 3.0 mph

Today
High -- | Low -- °F
--% Chance of Precip.
Yesterday
High -- | Low -- °F
Precip. -- in
5:02 AM 8:15 PM
Full, 100% visible
Pressure 30.33 in
Visibility 8.0 miles
Clouds Mostly Cloudy 600 ft
Mostly Cloudy 1300 ft
Overcast 1700 ft
Windchill 46 °F
Dew Point 45 °F
Humidity 96%
Rainfall 1.29 in
Snow Depth Not available.
UV 0 out of 12
Pollen .90 out of 12
Air Quality Not available.
Flu Activity Regional
METAR KPWM 020151Z 07010KT 8SM -RA BKN006 BKN013 OVC017 08/08 A3033 RMK AO2 SLP270 P0003 T00830078

More Conditions Fewer Conditions

Pressure 30.33 in
Visibility 8.0 miles
Clouds Mostly Cloudy 600 ft
Mostly Cloudy 1300 ft
Overcast 1700 ft
Windchill 46 °F
Dew Point 45 °F
Humidity 96%
Rainfall 1.29 in
Snow Depth Not available.
UV 0 out of 12
Pollen .90 out of 12
Air Quality Not available.
Flu Activity Regional
METAR KPWM 020151Z 07010KT 8SM -RA BKN006 BKN013 OVC017 08/08 A3033 RMK AO2 SLP270 P0003 T00830078

More Conditions Fewer Conditions

10-Day Weather Forecast

Almanac

Astronomy

Jun. 01, 2015 Rise Set
Actual Time
Civil Twilight
Nautical Twilight
Astronomical Twilight
Moon
Length of Visible Light
Length of Day
Tomorrow will be .
, % of the Moon is Illuminated

Today's Extremes

State Highs State Lows

Community

WunderPhotos

Upload Photos

1,825,858 photos uploaded!

WunderBlogs® & News

Nearby

Air Quality

  Air Quality AQ Index Pollutant
Not available.

Snow Depth

Station Depth Elevation

Earthquake Activity

City Distance Mag. Time & Date
Minimum magnitude displayed is 2.5.

Coastal Water Temperatures

Place Temperature

Stations

Nearby Weather Stations

Station Location Temp. Windchill Dew Point Humidity Wind Precip. Elev Updated Type